Time;durP1;ratioP1;P1;durP2;ratioP2;P2;SDS_P1;SDS_P2;PMS_P1;PMS_P2;Temp;Humidity;BMP_temperature;BMP_pressure;BME280_temperature;BME280_humidity;BME280_pressure;Samples;Min_cycle;Max_cycle;Signal;HPM_P1;HPM_P2
2023/04/10 00:00:31;;;;;;;31.25;20.35;;;;;;;5.14;100.00;93122.84;5028080;28;20095;-70
2023/04/10 00:02:58;;;;;;;31.40;19.38;;;;;;;5.01;100.00;93120.97;5028282;28;20091;-70
2023/04/10 00:05:27;;;;;;;27.02;19.85;;;;;;;4.80;100.00;93108.94;5028478;28;20053;-70
2023/04/10 00:07:53;;;;;;;27.90;19.17;;;;;;;4.88;100.00;93113.16;5028209;28;20120;-70
2023/04/10 00:10:21;;;;;;;32.13;21.25;;;;;;;4.90;100.00;93113.75;5028633;28;21094;-70
2023/04/10 00:12:47;;;;;;;26.80;19.35;;;;;;;4.92;100.00;93109.28;5027931;28;20508;-70
2023/04/10 00:15:14;;;;;;;29.23;20.15;;;;;;;4.56;100.00;93110.78;5027805;28;20041;-70
2023/04/10 00:17:41;;;;;;;27.52;18.95;;;;;;;4.55;100.00;93106.66;5027698;28;20514;-70
2023/04/10 00:20:09;;;;;;;26.55;17.23;;;;;;;4.54;100.00;93108.41;5032174;28;20102;-70
2023/04/10 00:22:37;;;;;;;30.38;19.55;;;;;;;4.61;100.00;93095.00;5047500;28;20048;-70
2023/04/10 00:25:05;;;;;;;26.65;20.02;;;;;;;4.67;100.00;93097.63;5047811;28;20041;-70
2023/04/10 00:27:32;;;;;;;30.42;20.17;;;;;;;4.74;100.00;93110.44;5047530;28;20045;-70
2023/04/10 00:29:58;;;;;;;30.33;20.95;;;;;;;4.73;100.00;93102.97;5047565;28;20438;-70
2023/04/10 00:32:25;;;;;;;34.95;21.75;;;;;;;4.64;100.00;93077.63;5047770;28;20095;-70
2023/04/10 00:34:52;;;;;;;28.35;20.67;;;;;;;4.66;100.00;93092.72;5047726;28;20049;-70
2023/04/10 00:37:18;;;;;;;32.78;21.55;;;;;;;4.71;100.00;93100.59;5047398;28;20056;-70
2023/04/10 00:39:46;;;;;;;30.40;21.00;;;;;;;4.72;100.00;93101.41;5047528;28;20458;-70
2023/04/10 00:42:13;;;;;;;35.35;21.88;;;;;;;4.67;100.00;93089.19;5047778;28;20490;-70
2023/04/10 00:44:40;;;;;;;30.63;21.33;;;;;;;4.71;100.00;93079.47;5047247;28;20053;-70
2023/04/10 00:47:07;;;;;;;29.30;20.45;;;;;;;4.77;100.00;93099.13;5047673;28;20049;-69
2023/04/10 00:49:35;;;;;;;31.20;20.98;;;;;;;4.83;100.00;93093.31;5047469;28;20440;-69
2023/04/10 00:52:01;;;;;;;27.95;19.88;;;;;;;4.77;100.00;93089.72;5047375;28;20110;-69
2023/04/10 00:54:28;;;;;;;29.30;20.40;;;;;;;4.78;100.00;93096.38;5047141;28;20045;-70
2023/04/10 00:56:58;;;;;;;33.50;20.08;;;;;;;4.72;100.00;93089.47;5039320;28;20046;-69
2023/04/10 00:59:25;;;;;;;28.85;19.90;;;;;;;4.70;100.00;93082.97;5027511;28;20140;-69
2023/04/10 01:01:55;;;;;;;28.27;19.08;;;;;;;4.55;100.00;93076.16;5027368;28;20119;-69
2023/04/10 01:04:25;;;;;;;28.33;19.60;;;;;;;4.52;100.00;93077.28;5027539;28;20053;-70
2023/04/10 01:06:58;;;;;;;25.88;17.98;;;;;;;4.62;100.00;93094.03;5027501;28;20045;-70
2023/04/10 01:09:36;;;;;;;26.25;18.48;;;;;;;4.54;100.00;93087.28;5026915;28;20057;-70
2023/04/10 01:12:15;;;;;;;26.83;18.90;;;;;;;4.45;100.00;93089.13;5027402;28;20049;-70
2023/04/10 01:14:49;;;;;;;30.35;19.85;;;;;;;4.52;100.00;93089.19;5039949;28;20045;-70
2023/04/10 01:17:21;;;;;;;30.13;19.65;;;;;;;4.47;100.00;93078.75;5027287;28;20148;-69
2023/04/10 01:20:07;;;;;;;28.33;19.10;;;;;;;4.59;100.00;93082.47;5028831;28;20119;-69
2023/04/10 01:22:36;;;;;;;26.10;17.80;;;;;;;4.68;100.00;93083.94;5046925;28;20053;-69
2023/04/10 01:25:22;;;;;;;32.22;20.80;;;;;;;4.71;100.00;93084.56;5047115;28;20414;-69
2023/04/10 01:28:05;;;;;;;29.58;21.60;;;;;;;4.75;100.00;93085.78;5034746;28;20092;-69
2023/04/10 01:30:36;;;;;;;27.65;19.45;;;;;;;4.74;100.00;93084.19;5027467;28;20049;-70
2023/04/10 01:33:09;;;;;;;27.45;19.63;;;;;;;4.77;100.00;93083.84;5027612;28;20204;-69
2023/04/10 01:35:37;;;;;;;32.38;20.58;;;;;;;4.77;100.00;93087.19;5030950;28;20049;-69
2023/04/10 01:38:06;;;;;;;27.95;18.50;;;;;;;4.85;100.00;93093.16;5031393;28;20119;-69
2023/04/10 01:40:35;;;;;;;26.33;18.38;;;;;;;4.81;100.00;93085.06;5031080;28;20049;-69
2023/04/10 01:43:05;;;;;;;25.90;17.83;;;;;;;4.84;100.00;93081.38;5030579;28;20103;-70
2023/04/10 01:45:33;;;;;;;24.85;16.70;;;;;;;4.82;100.00;93084.91;5030832;28;20108;-70
2023/04/10 01:48:00;;;;;;;24.45;15.85;;;;;;;4.59;100.00;93086.75;5030907;28;20084;-69
2023/04/10 01:50:28;;;;;;;25.67;16.75;;;;;;;4.52;100.00;93084.13;5031073;28;20121;-69
2023/04/10 01:52:57;;;;;;;24.90;17.55;;;;;;;4.25;100.00;93081.19;5030914;28;20050;-69
2023/04/10 01:55:24;;;;;;;25.85;18.30;;;;;;;4.32;100.00;93088.94;5031021;28;20042;-69
2023/04/10 01:57:55;;;;;;;27.85;18.92;;;;;;;4.37;100.00;93077.28;5032688;28;20520;-69
2023/04/10 02:00:22;;;;;;;30.33;19.02;;;;;;;4.47;100.00;93066.84;5030853;28;20053;-69
2023/04/10 02:02:50;;;;;;;29.55;20.35;;;;;;;4.60;100.00;93075.59;5030658;28;20049;-69
2023/04/10 02:05:17;;;;;;;39.00;27.05;;;;;;;4.63;100.00;93081.13;5030730;28;20057;-69
2023/04/10 02:07:50;;;;;;;34.28;24.08;;;;;;;4.68;100.00;93066.13;5030434;28;20049;-69
2023/04/10 02:10:22;;;;;;;34.60;22.38;;;;;;;4.68;100.00;93078.06;5046144;28;20056;-69
2023/04/10 02:12:52;;;;;;;30.98;22.05;;;;;;;4.79;100.00;93075.09;5039126;28;20573;-69
2023/04/10 02:15:21;;;;;;;36.33;22.63;;;;;;;4.82;100.00;93073.94;5030712;28;20056;-69
2023/04/10 02:17:51;;;;;;;33.63;23.38;;;;;;;4.89;100.00;93072.25;5030303;28;20103;-69
2023/04/10 02:20:19;;;;;;;26.08;17.63;;;;;;;4.67;100.00;93068.84;5035386;28;20547;-69
2023/04/10 02:22:46;;;;;;;28.15;18.33;;;;;;;4.45;100.00;93066.25;5050260;28;20095;-69
2023/04/10 02:25:14;;;;;;;28.80;18.80;;;;;;;4.62;100.00;93061.75;5049483;28;20090;-69
2023/04/10 02:27:41;;;;;;;27.55;17.38;;;;;;;4.64;100.00;93062.34;5050277;28;20049;-69
2023/04/10 02:30:09;;;;;;;25.73;16.63;;;;;;;4.70;100.00;93054.97;5049959;28;20543;-69
2023/04/10 02:32:36;;;;;;;26.77;17.63;;;;;;;4.70;100.00;93052.44;5049925;28;20049;-69
2023/04/10 02:35:05;;;;;;;29.27;17.75;;;;;;;4.73;100.00;93049.53;5036330;28;20077;-70
2023/04/10 02:37:32;;;;;;;28.48;17.90;;;;;;;4.69;100.00;93049.13;5029879;28;20045;-70
2023/04/10 02:39:59;;;;;;;25.92;17.42;;;;;;;4.73;100.00;93050.34;5041379;28;20053;-70
2023/04/10 02:42:26;;;;;;;21.70;14.65;;;;;;;4.71;100.00;93037.00;5031000;28;20085;-70
2023/04/10 02:44:52;;;;;;;21.35;13.57;;;;;;;4.73;100.00;93039.38;5029213;28;20568;-70
2023/04/10 02:47:19;;;;;;;20.98;14.02;;;;;;;4.69;100.00;93033.84;5043680;28;20041;-69
2023/04/10 02:49:47;;;;;;;25.33;15.43;;;;;;;4.73;100.00;93030.00;5049697;28;20554;-69
2023/04/10 02:52:15;;;;;;;21.10;13.75;;;;;;;4.79;100.00;93038.66;5049623;28;20103;-69
2023/04/10 02:54:42;;;;;;;19.52;13.52;;;;;;;4.78;100.00;93048.03;5049748;28;20390;-69
2023/04/10 02:57:08;;;;;;;21.67;14.15;;;;;;;4.70;100.00;93027.78;5049651;28;20103;-69
2023/04/10 02:59:35;;;;;;;21.10;13.85;;;;;;;4.73;100.00;93037.63;5049599;28;20049;-70
2023/04/10 03:02:02;;;;;;;18.55;12.85;;;;;;;4.78;100.00;93044.72;5049275;28;20045;-70
2023/04/10 03:04:31;;;;;;;18.30;13.13;;;;;;;4.76;100.00;93047.44;5049834;28;20103;-69
2023/04/10 03:06:58;;;;;;;18.80;13.60;;;;;;;4.71;100.00;93041.31;5034667;28;20524;-70
2023/04/10 03:09:26;;;;;;;19.55;13.48;;;;;;;4.71;100.00;93039.53;5042401;28;20053;-70
2023/04/10 03:11:53;;;;;;;19.48;12.98;;;;;;;4.63;100.00;93042.19;5029570;28;20053;-70
2023/04/10 03:14:19;;;;;;;21.42;13.55;;;;;;;4.60;100.00;93040.00;5029636;28;20095;-69
2023/04/10 03:16:46;;;;;;;21.75;13.88;;;;;;;4.58;100.00;93044.47;5030522;28;20045;-69
2023/04/10 03:19:13;;;;;;;20.40;13.85;;;;;;;4.60;100.00;93043.34;5041197;28;20046;-69
2023/04/10 03:21:40;;;;;;;19.90;13.18;;;;;;;4.56;100.00;93044.66;5046372;28;20512;-70
2023/04/10 03:24:07;;;;;;;19.77;14.23;;;;;;;4.51;100.00;93039.31;5049006;28;20171;-69
2023/04/10 03:26:35;;;;;;;17.92;13.02;;;;;;;4.53;100.00;93048.34;5048842;28;20049;-69
2023/04/10 03:29:01;;;;;;;21.30;13.85;;;;;;;4.50;100.00;93050.44;5049148;28;20128;-69
2023/04/10 03:31:28;;;;;;;20.77;13.98;;;;;;;4.46;100.00;93051.75;5049112;28;20084;-69
2023/04/10 03:33:55;;;;;;;25.23;17.50;;;;;;;4.47;100.00;93051.59;5049222;28;20519;-69
2023/04/10 03:36:22;;;;;;;30.50;18.73;;;;;;;4.47;100.00;93051.59;5048951;28;21260;-69
2023/04/10 03:38:50;;;;;;;38.65;22.85;;;;;;;4.43;100.00;93052.88;5048439;28;20160;-69
2023/04/10 03:41:17;;;;;;;17.40;12.38;;;;;;;4.36;100.00;93050.25;5048707;28;20512;-69
2023/04/10 03:43:45;;;;;;;19.10;13.40;;;;;;;4.28;100.00;93048.59;5048998;28;20167;-70
2023/04/10 03:46:12;;;;;;;18.58;12.23;;;;;;;4.30;100.00;93058.59;5048629;28;20051;-69
2023/04/10 03:48:38;;;;;;;13.60;10.23;;;;;;;4.30;100.00;93057.81;5048383;28;20053;-69
2023/04/10 03:51:06;;;;;;;17.05;11.68;;;;;;;4.21;100.00;93052.78;5048318;28;20122;-70
2023/04/10 03:53:34;;;;;;;13.60;10.23;;;;;;;4.27;100.00;93066.56;5048521;28;20048;-69
2023/04/10 03:56:01;;;;;;;12.93;9.40;;;;;;;4.23;100.00;93061.06;5048540;28;20057;-69
2023/04/10 03:58:28;;;;;;;15.00;10.00;;;;;;;4.20;100.00;93063.94;5042343;28;20644;-69
2023/04/10 04:00:56;;;;;;;16.98;12.85;;;;;;;4.10;100.00;93069.28;5028229;28;20045;-69
2023/04/10 04:03:23;;;;;;;15.10;10.55;;;;;;;4.04;100.00;93066.63;5027974;28;20498;-70
2023/04/10 04:05:51;;;;;;;13.15;10.23;;;;;;;3.93;100.00;93071.16;5028135;28;20111;-69
2023/04/10 04:08:17;;;;;;;14.18;10.60;;;;;;;3.88;100.00;93070.88;5028364;28;20049;-69
2023/04/10 04:10:44;;;;;;;13.52;10.18;;;;;;;3.86;100.00;93067.72;5031220;28;20560;-69
2023/04/10 04:13:11;;;;;;;13.00;9.38;;;;;;;3.87;100.00;93071.84;5048207;28;20045;-69
2023/04/10 04:15:37;;;;;;;13.05;9.75;;;;;;;3.84;100.00;93075.50;5048201;28;20124;-69
2023/04/10 04:18:06;;;;;;;15.45;11.02;;;;;;;3.87;100.00;93072.66;5047999;28;20091;-69
2023/04/10 04:20:32;;;;;;;16.98;13.40;;;;;;;3.90;100.00;93080.88;5047962;28;20095;-70
2023/04/10 04:22:59;;;;;;;19.40;13.45;;;;;;;3.92;100.00;93078.94;5047585;28;20809;-70
2023/04/10 04:25:26;;;;;;;16.05;10.75;;;;;;;3.96;100.00;93082.72;5047977;28;20106;-70
2023/04/10 04:27:53;;;;;;;16.45;11.55;;;;;;;3.98;100.00;93084.13;5047506;28;20152;-69
2023/04/10 04:30:19;;;;;;;18.08;11.38;;;;;;;4.08;100.00;93093.28;5047499;28;20493;-69
2023/04/10 04:32:46;;;;;;;14.88;11.18;;;;;;;4.14;100.00;93088.31;5048004;28;20049;-69
2023/04/10 04:35:14;;;;;;;20.88;13.68;;;;;;;4.16;100.00;93089.88;5047693;28;20049;-69
2023/04/10 04:37:41;;;;;;;21.15;14.50;;;;;;;4.19;100.00;93094.59;5047448;28;20057;-69
2023/04/10 04:40:08;;;;;;;25.65;15.68;;;;;;;4.26;100.00;93098.06;5047918;28;20045;-70
2023/04/10 04:42:36;;;;;;;26.25;15.95;;;;;;;4.32;100.00;93102.44;5047618;28;20041;-70
2023/04/10 04:45:02;;;;;;;18.23;13.10;;;;;;;4.11;100.00;93095.47;5047465;28;20546;-69
2023/04/10 04:47:29;;;;;;;17.23;11.68;;;;;;;4.10;100.00;93104.06;5047531;28;20508;-69
2023/04/10 04:49:56;;;;;;;16.30;11.13;;;;;;;4.08;100.00;93098.38;5047456;28;20103;-69
2023/04/10 04:52:24;;;;;;;17.52;12.57;;;;;;;4.03;100.00;93093.78;5047294;28;20520;-69
2023/04/10 04:54:51;;;;;;;15.43;10.95;;;;;;;4.00;100.00;93086.50;5047371;28;20990;-69
2023/04/10 04:57:17;;;;;;;13.80;9.77;;;;;;;4.12;100.00;93102.94;5047465;28;20044;-69
2023/04/10 04:59:44;;;;;;;13.13;10.18;;;;;;;4.17;100.00;93089.69;5047244;28;20052;-69
2023/04/10 05:02:11;;;;;;;13.43;10.30;;;;;;;4.17;100.00;93088.91;5047117;28;20041;-69
2023/04/10 05:04:37;;;;;;;13.70;10.38;;;;;;;4.25;100.00;93104.88;5047220;28;20565;-69
2023/04/10 05:07:04;;;;;;;14.93;9.90;;;;;;;4.28;100.00;93103.75;5047217;28;20098;-69
2023/04/10 05:09:32;;;;;;;17.05;13.05;;;;;;;4.28;100.00;93103.75;5046963;28;20053;-69
2023/04/10 05:11:59;;;;;;;15.68;12.43;;;;;;;4.28;100.00;93102.00;5047239;28;20099;-69
2023/04/10 05:14:25;;;;;;;19.48;14.85;;;;;;;4.35;100.00;93114.78;5047026;28;20048;-69
2023/04/10 05:16:52;;;;;;;12.55;9.60;;;;;;;4.33;100.00;93114.19;5036110;28;20061;-69
2023/04/10 05:19:19;;;;;;;15.00;10.73;;;;;;;4.40;100.00;93117.59;5027050;28;20108;-69
2023/04/10 05:21:45;;;;;;;14.18;10.10;;;;;;;4.46;100.00;93123.78;5044544;28;20084;-69
2023/04/10 05:24:12;;;;;;;11.65;8.75;;;;;;;4.59;100.00;93123.16;5047086;28;20049;-69
2023/04/10 05:26:41;;;;;;;13.32;10.40;;;;;;;4.63;100.00;93126.16;5046790;28;20643;-69
2023/04/10 05:29:08;;;;;;;12.68;9.80;;;;;;;4.61;100.00;93121.22;5047316;28;20045;-69
2023/04/10 05:31:34;;;;;;;38.28;20.00;;;;;;;4.77;100.00;93120.25;5047321;28;20049;-69
2023/04/10 05:34:01;;;;;;;102.15;40.60;;;;;;;4.91;100.00;93133.94;5046354;28;20566;-69
2023/04/10 05:36:28;;;;;;;68.43;28.67;;;;;;;4.97;100.00;93134.22;5046969;28;20049;-69
2023/04/10 05:38:54;;;;;;;113.22;51.47;;;;;;;4.98;100.00;93126.41;5043273;28;20099;-69
2023/04/10 05:41:21;;;;;;;195.60;90.55;;;;;;;4.92;100.00;93091.47;5027336;28;20073;-70
2023/04/10 05:43:49;;;;;;;17.65;11.60;;;;;;;5.13;100.00;93136.56;5044978;28;20049;-70
2023/04/10 05:46:17;;;;;;;14.60;9.73;;;;;;;5.28;100.00;93139.09;5034277;28;20045;-70
2023/04/10 05:48:43;;;;;;;11.70;8.98;;;;;;;5.40;100.00;93141.16;5046709;28;20045;-70
2023/04/10 05:51:10;;;;;;;12.50;8.88;;;;;;;5.26;100.00;93143.56;5046898;28;20106;-70
2023/04/10 05:53:37;;;;;;;12.35;8.85;;;;;;;5.31;100.00;93138.75;5046685;28;20063;-70
2023/04/10 05:56:03;;;;;;;12.35;9.43;;;;;;;5.45;100.00;93142.22;5046697;28;20456;-70
2023/04/10 05:58:30;;;;;;;15.43;11.35;;;;;;;5.38;100.00;93141.38;5046589;28;20198;-70
2023/04/10 06:00:58;;;;;;;15.35;10.95;;;;;;;5.59;100.00;93152.53;5046696;28;20133;-70
2023/04/10 06:03:28;;;;;;;17.48;12.32;;;;;;;5.70;100.00;93138.56;5046576;28;20468;-70
2023/04/10 06:05:54;;;;;;;18.00;10.85;;;;;;;5.68;100.00;93151.47;5046887;28;20052;-70
2023/04/10 06:08:21;;;;;;;15.43;11.63;;;;;;;5.58;100.00;93144.13;5046692;28;20437;-70
2023/04/10 06:10:48;;;;;;;20.42;13.35;;;;;;;5.47;100.00;93139.50;5046497;28;20080;-70
2023/04/10 06:13:15;;;;;;;34.70;21.20;;;;;;;5.65;100.00;93148.50;5046609;28;20505;-70
2023/04/10 06:15:42;;;;;;;15.75;11.57;;;;;;;5.71;100.00;93143.47;5046677;28;20049;-70
2023/04/10 06:18:10;;;;;;;14.52;11.13;;;;;;;5.73;100.00;93140.72;5046420;28;20110;-70
2023/04/10 06:20:37;;;;;;;17.13;12.32;;;;;;;5.56;100.00;93148.59;5049931;28;20053;-70
2023/04/10 06:23:04;;;;;;;15.50;11.75;;;;;;;5.72;100.00;93137.41;5050146;28;20098;-70
2023/04/10 06:25:31;;;;;;;16.77;12.88;;;;;;;5.69;100.00;93144.63;5050330;28;20045;-70
2023/04/10 06:27:58;;;;;;;16.83;12.27;;;;;;;5.51;100.00;93138.16;5049722;28;20045;-70
2023/04/10 06:30:24;;;;;;;21.95;14.93;;;;;;;5.47;100.00;93140.28;5048266;28;20048;-70
2023/04/10 06:32:51;;;;;;;34.10;24.25;;;;;;;5.59;100.00;93145.69;5049315;28;20060;-70
2023/04/10 06:35:20;;;;;;;17.58;13.77;;;;;;;5.51;100.00;93142.47;5048843;28;20048;-70
2023/04/10 06:37:46;;;;;;;21.90;16.67;;;;;;;5.47;100.00;93144.59;5049518;28;20504;-70
2023/04/10 06:40:14;;;;;;;18.75;15.00;;;;;;;5.56;100.00;93143.50;5049715;28;20045;-70
2023/04/10 06:42:41;;;;;;;20.17;13.95;;;;;;;5.84;100.00;93135.13;5049668;28;20138;-70
2023/04/10 06:45:08;;;;;;;21.90;15.80;;;;;;;6.01;100.00;93129.81;5049614;28;20045;-70
2023/04/10 06:47:35;;;;;;;20.90;14.98;;;;;;;6.27;100.00;93146.34;5048788;28;20114;-70
2023/04/10 06:50:02;;;;;;;19.70;14.20;;;;;;;6.34;100.00;93149.72;5049341;28;20100;-70
2023/04/10 06:52:30;;;;;;;20.92;15.48;;;;;;;6.52;100.00;93148.47;5049341;28;20095;-70
2023/04/10 06:54:56;;;;;;;21.73;16.17;;;;;;;6.66;100.00;93157.00;5049233;28;20134;-70
2023/04/10 06:57:23;;;;;;;16.15;12.52;;;;;;;6.46;100.00;93144.91;5049064;28;20044;-70
2023/04/10 06:59:50;;;;;;;24.55;17.58;;;;;;;6.67;100.00;93161.91;5048891;28;20106;-70
2023/04/10 07:02:17;;;;;;;25.55;19.25;;;;;;;6.82;100.00;93158.50;5049140;28;20098;-70
2023/04/10 07:04:43;;;;;;;28.70;21.15;;;;;;;6.75;100.00;93168.66;5048809;28;20494;-70
2023/04/10 07:07:12;;;;;;;20.85;16.80;;;;;;;6.80;100.00;93173.19;5049077;28;20045;-70
2023/04/10 07:09:40;;;;;;;18.08;14.00;;;;;;;6.75;100.00;93172.97;5038077;28;20049;-70
2023/04/10 07:12:07;;;;;;;27.10;18.20;;;;;;;7.04;100.00;93163.53;5049153;28;20048;-70
2023/04/10 07:14:34;;;;;;;17.98;13.50;;;;;;;7.03;100.00;93162.72;5048931;28;20107;-70
2023/04/10 07:17:01;;;;;;;15.55;11.93;;;;;;;6.81;100.00;93121.94;5048351;28;20049;-70
2023/04/10 07:19:28;;;;;;;16.55;12.23;;;;;;;7.24;100.00;93155.94;5047939;28;20099;-70
2023/04/10 07:21:55;;;;;;;21.63;14.48;;;;;;;7.29;100.00;93156.16;5047578;28;20049;-70
2023/04/10 07:24:21;;;;;;;22.75;16.25;;;;;;;7.27;100.00;93157.34;5048350;28;20045;-71
2023/04/10 07:26:49;;;;;;;18.58;12.85;;;;;;;7.59;100.00;93158.44;5047788;28;20037;-70
2023/04/10 07:29:16;;;;;;;15.25;11.88;;;;;;;7.56;100.00;93161.38;5047925;28;20060;-70
2023/04/10 07:31:43;;;;;;;18.05;13.35;;;;;;;7.87;100.00;93152.41;5046721;28;20128;-70
2023/04/10 07:34:10;;;;;;;17.15;12.00;;;;;;;7.95;100.00;93156.53;5047690;28;20275;-70
2023/04/10 07:36:37;;;;;;;16.30;12.60;;;;;;;7.69;100.00;93162.41;5047956;28;20117;-70
2023/04/10 07:39:04;;;;;;;16.40;12.73;;;;;;;7.64;100.00;93165.50;5034157;28;20585;-70
2023/04/10 07:41:31;;;;;;;15.25;11.60;;;;;;;7.73;100.00;93168.72;5047727;28;20048;-71
2023/04/10 07:43:59;;;;;;;15.52;11.38;;;;;;;7.62;100.00;93162.38;5046787;28;20098;-70
2023/04/10 07:46:27;;;;;;;15.13;11.30;;;;;;;7.52;100.00;93162.75;5047517;28;20607;-70
2023/04/10 07:48:55;;;;;;;15.10;11.63;;;;;;;7.37;100.00;93159.53;5044339;28;20103;-70
2023/04/10 07:51:21;;;;;;;18.40;13.57;;;;;;;7.41;100.00;93156.41;5047504;28;20051;-70
2023/04/10 07:53:48;;;;;;;40.28;22.85;;;;;;;7.11;100.00;93166.88;5046506;28;20060;-70
2023/04/10 07:56:16;;;;;;;29.38;19.17;;;;;;;7.07;100.00;93165.69;5046136;28;20048;-70
2023/04/10 07:58:44;;;;;;;39.03;22.50;;;;;;;7.17;100.00;93157.69;5046932;28;20132;-70
2023/04/10 08:01:12;;;;;;;31.30;19.85;;;;;;;7.14;100.00;93142.72;5044972;28;20132;-70
2023/04/10 08:03:40;;;;;;;21.30;14.68;;;;;;;7.25;100.00;93154.16;5036539;28;20049;-70
2023/04/10 08:06:09;;;;;;;21.58;15.15;;;;;;;7.33;100.00;93154.78;5047579;28;20045;-70
2023/04/10 08:08:36;;;;;;;27.92;17.73;;;;;;;7.16;100.00;93161.19;5047885;28;20049;-70
2023/04/10 08:11:03;;;;;;;25.90;17.80;;;;;;;7.22;100.00;93150.22;5047625;28;20456;-70
2023/04/10 08:13:30;;;;;;;43.78;26.38;;;;;;;7.09;100.00;93121.09;5047382;28;20693;-70
2023/04/10 08:15:57;;;;;;;26.25;16.63;;;;;;;7.30;100.00;93156.94;5047528;28;20056;-70
2023/04/10 08:18:25;;;;;;;27.45;17.80;;;;;;;6.93;100.00;93126.53;5047304;28;20057;-70
2023/04/10 08:20:52;;;;;;;20.38;14.55;;;;;;;7.26;100.00;93151.44;5047097;28;20513;-70
2023/04/10 08:23:18;;;;;;;23.83;15.88;;;;;;;7.32;100.00;93148.09;5047440;28;20049;-70
2023/04/10 08:25:45;;;;;;;16.40;13.02;;;;;;;7.34;100.00;93141.06;5047674;28;20053;-70
2023/04/10 08:28:12;;;;;;;16.92;12.88;;;;;;;7.36;100.00;93163.84;5046758;28;20055;-70
2023/04/10 08:30:39;;;;;;;17.98;14.43;;;;;;;7.53;100.00;93148.97;5047572;28;20053;-70
2023/04/10 08:33:05;;;;;;;18.77;14.02;;;;;;;7.64;100.00;93157.84;5047178;28;20536;-70
2023/04/10 08:35:33;;;;;;;19.13;14.50;;;;;;;7.78;100.00;93152.78;5047238;28;20045;-69
2023/04/10 08:38:00;;;;;;;21.05;16.48;;;;;;;7.83;100.00;93151.19;5047334;28;20094;-70
2023/04/10 08:40:27;;;;;;;16.27;12.93;;;;;;;8.04;100.00;93152.03;5047456;28;20110;-70
2023/04/10 08:42:54;;;;;;;15.98;11.05;;;;;;;7.73;100.00;93149.03;5046525;28;20045;-70
2023/04/10 08:45:22;;;;;;;14.75;10.63;;;;;;;8.11;100.00;93136.69;5047087;28;20084;-70
2023/04/10 08:47:51;;;;;;;15.30;11.60;;;;;;;8.35;100.00;93130.22;5044763;28;20049;-70
2023/04/10 08:50:18;;;;;;;14.63;11.57;;;;;;;8.60;100.00;93139.09;5047119;28;20497;-70
2023/04/10 08:52:48;;;;;;;14.00;11.05;;;;;;;8.28;100.00;93134.53;5047453;28;20049;-70
2023/04/10 08:55:15;;;;;;;13.85;10.82;;;;;;;8.05;100.00;93140.03;5047092;28;20045;-70
2023/04/10 08:57:44;;;;;;;16.00;11.38;;;;;;;7.81;100.00;93102.03;5046512;28;20421;-70
2023/04/10 09:00:11;;;;;;;15.30;11.63;;;;;;;8.38;100.00;93129.81;5046741;28;20049;-70
2023/04/10 09:02:40;;;;;;;12.30;9.77;;;;;;;8.12;99.75;93143.38;5046632;28;20095;-70
2023/04/10 09:05:11;;;;;;;13.95;10.30;;;;;;;8.14;99.27;93144.75;5047061;28;20045;-70
2023/04/10 09:07:38;;;;;;;13.20;9.98;;;;;;;8.24;100.00;93141.81;5046977;28;20175;-70
2023/04/10 09:10:06;;;;;;;17.88;13.13;;;;;;;8.25;96.76;93148.50;5046678;28;20558;-70
2023/04/10 09:12:44;;;;;;;14.52;11.13;;;;;;;8.28;95.52;93144.75;5046108;28;20540;-70
2023/04/10 09:15:10;;;;;;;13.57;10.50;;;;;;;7.88;100.00;93141.19;5046918;28;20087;-70
2023/04/10 09:17:37;;;;;;;17.92;13.82;;;;;;;7.78;98.78;93142.56;5045234;28;20368;-70
2023/04/10 09:20:21;;;;;;;12.85;10.20;;;;;;;7.92;98.61;93138.25;5030515;28;20049;-70
2023/04/10 09:22:47;;;;;;;13.80;10.55;;;;;;;8.04;96.83;93125.69;5046850;28;20127;-70
2023/04/10 09:25:30;;;;;;;13.82;10.02;;;;;;;8.10;96.64;93133.34;5046543;28;20037;-70
2023/04/10 09:28:01;;;;;;;13.38;9.75;;;;;;;8.18;95.72;93118.78;5046546;28;20048;-70
2023/04/10 09:30:34;;;;;;;13.60;9.82;;;;;;;8.18;96.60;93106.78;5046565;28;20140;-70
2023/04/10 09:33:01;;;;;;;14.65;10.10;;;;;;;8.22;96.16;93122.53;5046847;28;20045;-70
2023/04/10 09:35:36;;;;;;;25.35;15.30;;;;;;;8.06;95.43;93118.59;5047004;28;20048;-70
2023/04/10 09:38:15;;;;;;;17.30;11.48;;;;;;;8.11;93.10;93116.22;5045944;28;20552;-70
2023/04/10 09:40:43;;;;;;;30.88;15.80;;;;;;;8.13;92.13;93114.25;5045882;28;20088;-70
2023/04/10 09:43:21;;;;;;;11.98;9.40;;;;;;;8.28;95.29;93111.50;5046891;28;20123;-70
2023/04/10 09:45:50;;;;;;;12.75;9.90;;;;;;;8.46;95.24;93110.13;5046235;28;20045;-70
2023/04/10 09:48:17;;;;;;;12.30;9.13;;;;;;;8.57;91.57;93124.09;5044797;28;20136;-70
2023/04/10 09:50:44;;;;;;;11.25;8.48;;;;;;;8.55;89.67;93119.97;5046512;28;20049;-70
2023/04/10 09:53:12;;;;;;;10.23;8.05;;;;;;;8.54;91.13;93120.19;5046513;28;20044;-70
2023/04/10 09:55:39;;;;;;;11.98;9.20;;;;;;;8.97;89.70;93113.78;5048876;28;20045;-70
2023/04/10 09:58:08;;;;;;;12.30;8.60;;;;;;;8.64;87.09;93112.88;5050455;28;20042;-70
2023/04/10 10:00:40;;;;;;;10.55;8.18;;;;;;;8.77;88.76;93116.38;5050094;28;20460;-70
2023/04/10 10:03:09;;;;;;;13.68;8.98;;;;;;;8.64;88.06;93104.41;5050490;28;20079;-70
2023/04/10 10:05:39;;;;;;;11.05;8.85;;;;;;;9.06;89.86;93112.56;5049777;28;20051;-70
2023/04/10 10:08:06;;;;;;;62.53;35.67;;;;;;;8.97;87.08;93120.69;5050434;28;20068;-70
2023/04/10 10:10:33;;;;;;;30.13;17.00;;;;;;;8.94;90.09;93086.78;5049497;28;20860;-70
2023/04/10 10:13:02;;;;;;;29.48;16.42;;;;;;;9.10;89.48;93110.38;5049840;28;20041;-70
2023/04/10 10:15:37;;;;;;;24.23;17.20;;;;;;;8.41;90.08;93110.69;5050076;28;20051;-70
2023/04/10 10:18:10;;;;;;;11.95;8.95;;;;;;;8.90;91.48;93111.25;5049845;28;20056;-70
2023/04/10 10:20:38;;;;;;;11.88;8.68;;;;;;;8.98;90.94;93114.56;5050011;28;20064;-70
2023/04/10 10:23:07;;;;;;;34.25;22.48;;;;;;;8.98;89.69;93092.28;5049677;28;20079;-70
2023/04/10 10:25:35;;;;;;;16.48;11.13;;;;;;;9.16;91.41;93104.44;5047784;28;20110;-71
2023/04/10 10:28:08;;;;;;;47.80;26.50;;;;;;;8.73;89.60;93112.66;5049194;28;20076;-71
2023/04/10 10:30:37;;;;;;;23.92;16.40;;;;;;;8.39;92.15;93095.53;5045584;28;20136;-71
2023/04/10 10:33:06;;;;;;;38.40;23.90;;;;;;;8.73;94.68;93098.09;5045837;28;20102;-71
2023/04/10 10:35:35;;;;;;;97.82;52.08;;;;;;;9.00;91.76;93089.53;5049112;28;20049;-71
2023/04/10 10:38:04;;;;;;;60.22;30.55;;;;;;;9.00;88.99;93105.69;5035369;28;20045;-71
2023/04/10 10:40:33;;;;;;;70.63;31.10;;;;;;;9.17;90.61;93085.53;5049480;28;20049;-71
2023/04/10 10:43:09;;;;;;;31.63;14.57;;;;;;;9.06;87.69;93099.75;5049157;28;20049;-71
2023/04/10 10:45:44;;;;;;;31.83;14.43;;;;;;;8.70;87.90;93093.34;5049271;28;20051;-70
2023/04/10 10:48:10;;;;;;;35.42;15.07;;;;;;;8.73;87.37;93085.28;5049534;28;20041;-70
2023/04/10 10:50:55;;;;;;;70.93;33.17;;;;;;;8.98;85.42;93087.16;5049320;28;20049;-70
2023/04/10 10:53:33;;;;;;;23.17;15.35;;;;;;;9.31;85.41;93085.47;5049229;28;20055;-70
2023/04/10 10:56:21;;;;;;;90.18;43.67;;;;;;;9.30;85.55;93059.03;5048992;28;20045;-70
2023/04/10 10:58:50;;;;;;;18.42;11.32;;;;;;;9.19;84.53;93070.75;5048992;28;20087;-71
2023/04/10 11:01:19;;;;;;;55.17;25.05;;;;;;;9.32;83.63;93059.66;5048924;28;20064;-70
2023/04/10 11:03:46;;;;;;;29.25;16.63;;;;;;;9.13;84.51;93051.06;5048916;28;20072;-70
2023/04/10 11:06:15;;;;;;;66.28;32.72;;;;;;;9.34;84.00;93064.53;5048583;28;20045;-70
2023/04/10 11:08:45;;;;;;;19.23;12.02;;;;;;;9.03;84.72;93071.97;5048691;28;20045;-70
2023/04/10 11:11:15;;;;;;;105.03;47.60;;;;;;;8.98;86.95;93069.22;5049042;28;20462;-71
2023/04/10 11:14:06;;;;;;;25.05;14.95;;;;;;;9.19;87.64;93064.81;5048597;28;20049;-70
2023/04/10 11:16:45;;;;;;;43.03;26.50;;;;;;;9.14;86.31;93044.94;5048441;28;20056;-70
2023/04/10 11:19:16;;;;;;;32.38;19.48;;;;;;;9.41;86.58;93047.38;5048965;28;20082;-70
2023/04/10 11:22:02;;;;;;;13.73;9.55;;;;;;;9.61;84.90;93052.38;5047920;28;20059;-71
2023/04/10 11:24:30;;;;;;;27.63;18.73;;;;;;;9.46;84.93;93047.53;5048708;28;20048;-71